Terminal Aerodrome Forecast
Issued by NWS

Home | Current Version | Previous Version | Text Only | Print | Product List | Glossary On
Versions: 1 2 3 4 5 6 7 8 9 10 11 12
000
FTUS45 KREV 231700
TAFMMH
TAF
KMMH 231720Z 2318/2418 15006KT P6SM FEW200
     FM232000 20010G18KT P6SM FEW200
     FM232200 24012G20KT P6SM SKC
     FM240200 29008G16KT P6SM SKC
     FM240600 VRB04KT P6SM SKC=

USA.gov is the U.S. government's official web portal to all federal, state and local government web resources and services.